createdAt,value
2019-03-22T00:00:56.059Z,99.9
2019-03-22T00:05:58.522Z,99.9
2019-03-22T00:11:00.987Z,99.9
2019-03-22T00:16:03.478Z,99.9
2019-03-22T00:21:05.935Z,99.9
2019-03-22T00:26:08.392Z,99.9
2019-03-22T00:31:10.926Z,99.9
2019-03-22T00:36:13.311Z,99.9
2019-03-22T00:41:15.774Z,99.9
2019-03-22T00:46:18.469Z,99.9
2019-03-22T00:51:20.762Z,99.9
2019-03-22T00:56:23.176Z,99.9
2019-03-22T01:06:28.294Z,99.9
2019-03-22T01:11:30.586Z,99.9
2019-03-22T01:16:33.033Z,99.9
2019-03-22T01:21:35.618Z,99.9
2019-03-22T01:26:37.946Z,99.9
2019-03-22T01:31:40.419Z,99.9
2019-03-22T01:36:44.365Z,99.9
2019-03-22T01:41:45.504Z,99.9
2019-03-22T01:46:47.812Z,99.9
2019-03-22T01:51:50.309Z,99.9
2019-03-22T01:56:52.795Z,99.9
2019-03-22T02:01:55.200Z,99.9
2019-03-22T02:06:57.671Z,99.9
2019-03-22T02:12:00.211Z,99.9
2019-03-22T02:17:02.588Z,99.9
2019-03-22T02:22:05.052Z,99.9
2019-03-22T02:27:07.502Z,99.9
2019-03-22T02:32:09.978Z,99.9
2019-03-22T02:37:12.468Z,99.9
2019-03-22T02:42:14.985Z,99.9
2019-03-22T02:47:17.507Z,99.9
2019-03-22T02:52:19.875Z,99.9
2019-03-22T02:57:22.301Z,99.9
2019-03-22T03:02:24.793Z,99.9
2019-03-22T03:07:27.247Z,99.9
2019-03-22T03:12:29.708Z,99.9
2019-03-22T03:17:32.120Z,99.9
2019-03-22T03:22:34.624Z,99.9
2019-03-22T03:27:37.082Z,99.9
2019-03-22T03:32:39.615Z,99.9
2019-03-22T03:37:42.039Z,99.9
2019-03-22T03:42:44.491Z,99.9
2019-03-22T03:47:46.901Z,99.9
2019-03-22T03:52:49.634Z,99.9
2019-03-22T03:57:51.870Z,99.9
2019-03-22T04:02:54.275Z,99.9
2019-03-22T04:08:01.767Z,99.9
2019-03-22T04:12:59.333Z,99.9
2019-03-22T04:18:01.659Z,99.9
2019-03-22T04:23:04.496Z,99.9
2019-03-22T04:28:06.595Z,99.9
2019-03-22T04:33:09.069Z,99.9
2019-03-22T04:38:11.541Z,99.9
2019-03-22T04:43:13.977Z,99.9
2019-03-22T04:48:16.517Z,99.9
2019-03-22T04:53:21.526Z,99.9
2019-03-22T04:58:21.356Z,99.9
2019-03-22T05:03:23.823Z,99.9
2019-03-22T05:13:28.745Z,99.9
2019-03-22T05:18:31.326Z,99.9
2019-03-22T05:23:33.685Z,99.9
2019-03-22T05:28:36.221Z,99.9
2019-03-22T05:33:38.599Z,99.9
2019-03-22T05:38:41.092Z,99.9
2019-03-22T05:43:43.510Z,99.9
2019-03-22T05:48:45.960Z,99.9
2019-03-22T05:53:48.425Z,99.9
2019-03-22T05:58:50.929Z,99.9
2019-03-22T06:03:53.345Z,99.9
2019-03-22T06:08:55.916Z,99.9
2019-03-22T06:13:58.441Z,99.9
2019-03-22T06:19:00.744Z,99.9
2019-03-22T06:24:03.195Z,99.9
2019-03-22T06:29:05.763Z,99.9
2019-03-22T06:34:08.246Z,99.9
2019-03-22T06:39:10.676Z,99.9
2019-03-22T06:44:13.158Z,99.9
2019-03-22T06:49:15.634Z,99.9
2019-03-22T06:54:18.102Z,99.9
2019-03-22T06:59:20.440Z,99.9
2019-03-22T07:04:22.899Z,99.9
2019-03-22T07:09:25.353Z,1
2019-03-22T07:14:27.871Z,1
2019-03-22T07:19:30.257Z,1
2019-03-22T07:24:32.719Z,1
2019-03-22T07:29:35.230Z,1
2019-03-22T07:34:37.632Z,1
2019-03-22T07:39:40.137Z,1
2019-03-22T07:44:42.603Z,1
2019-03-22T07:49:45.039Z,1
2019-03-22T07:54:47.610Z,1
2019-03-22T07:59:50.009Z,1
2019-03-22T08:04:52.396Z,1
2019-03-22T08:09:54.916Z,1
2019-03-22T08:14:57.867Z,1
2019-03-22T08:19:59.837Z,1
2019-03-22T08:25:02.391Z,1
2019-03-22T08:30:04.716Z,1
2019-03-22T08:35:07.254Z,1
2019-03-22T08:40:09.732Z,1
2019-03-22T08:45:12.131Z,1
2019-03-22T08:50:14.593Z,1
2019-03-22T08:55:17.136Z,1
2019-03-22T09:00:19.580Z,1
2019-03-22T09:05:22.012Z,1
2019-03-22T09:10:24.387Z,1
2019-03-22T09:15:26.855Z,1
2019-03-22T09:20:29.372Z,1
2019-03-22T09:25:31.760Z,1
2019-03-22T09:30:34.365Z,1
2019-03-22T09:35:36.715Z,1
2019-03-22T09:40:39.202Z,1
2019-03-22T09:45:41.630Z,1
2019-03-22T09:50:44.090Z,1
2019-03-22T09:55:46.551Z,1
2019-03-22T10:00:49.170Z,1
2019-03-22T10:05:51.561Z,1
2019-03-22T10:10:53.952Z,1
2019-03-22T10:15:56.516Z,1
2019-03-22T10:20:58.916Z,1
2019-03-22T10:26:01.405Z,1
2019-03-22T10:31:03.831Z,1
2019-03-22T10:36:06.272Z,1
2019-03-22T10:41:08.766Z,1
2019-03-22T10:46:11.295Z,1
2019-03-22T10:51:13.677Z,1
2019-03-22T10:56:16.183Z,1
2019-03-22T11:01:18.614Z,1
2019-03-22T11:06:25.655Z,1
2019-03-22T11:11:23.518Z,1
2019-03-22T11:16:26.118Z,1
2019-03-22T11:21:28.468Z,1
2019-03-22T11:26:30.911Z,1
2019-03-22T11:31:39.684Z,1
2019-03-22T11:36:35.910Z,1
2019-03-22T11:41:38.323Z,1
2019-03-22T11:46:40.829Z,1
2019-03-22T11:56:45.700Z,1
2019-03-22T12:01:48.189Z,1
2019-03-22T12:06:50.657Z,1
2019-03-22T12:11:53.116Z,1
2019-03-22T12:16:56.678Z,1
2019-03-22T12:21:58.068Z,1
2019-03-22T12:27:00.703Z,1
2019-03-22T12:32:02.931Z,1
2019-03-22T12:37:05.400Z,1
2019-03-22T12:42:07.853Z,1
2019-03-22T12:47:10.402Z,1
2019-03-22T12:52:12.845Z,1
2019-03-22T12:57:15.247Z,1
2019-03-22T13:02:17.705Z,1
2019-03-22T13:07:20.161Z,1
2019-03-22T13:12:22.606Z,1
2019-03-22T13:17:25.114Z,1
2019-03-22T13:22:27.569Z,1
2019-03-22T13:27:29.999Z,1
2019-03-22T13:32:32.627Z,1
2019-03-22T13:37:34.933Z,1
2019-03-22T13:42:37.427Z,1
2019-03-22T13:47:39.918Z,1
2019-03-22T13:52:42.621Z,1
2019-03-22T13:57:44.867Z,1
2019-03-22T14:02:47.234Z,1
2019-03-22T14:07:49.652Z,1
2019-03-22T14:12:52.126Z,1
2019-03-22T14:17:54.639Z,1
2019-03-22T14:22:57.054Z,1
2019-03-22T14:27:59.539Z,1
2019-03-22T14:38:04.412Z,1
2019-03-22T14:43:06.914Z,1
2019-03-22T14:48:09.431Z,1
2019-03-22T14:53:11.877Z,1
2019-03-22T14:58:14.247Z,1
2019-03-22T15:03:22.467Z,1
2019-03-22T15:08:19.169Z,1
2019-03-22T15:13:21.662Z,1
2019-03-22T15:18:24.131Z,1
2019-03-22T15:23:26.585Z,1
2019-03-22T15:28:29.057Z,1
2019-03-22T15:33:34.021Z,1
2019-03-22T15:43:36.375Z,1
2019-03-22T15:48:38.847Z,1
2019-03-22T15:53:41.347Z,1
2019-03-22T15:58:43.762Z,1
2019-03-22T16:03:46.389Z,1
2019-03-22T16:08:48.684Z,1
2019-03-22T16:13:51.224Z,1
2019-03-22T16:18:53.604Z,1
2019-03-22T16:23:56.050Z,1
2019-03-22T16:28:58.505Z,1
2019-03-22T16:34:00.957Z,1
2019-03-22T16:39:03.477Z,1
2019-03-22T16:44:05.929Z,1
2019-03-22T16:49:08.610Z,1
2019-03-22T16:54:10.924Z,1
2019-03-22T16:59:13.303Z,1
2019-03-22T17:04:15.733Z,1
2019-03-22T17:09:18.280Z,1
2019-03-22T17:14:21.793Z,1
2019-03-22T17:19:23.392Z,1
2019-03-22T17:24:25.579Z,1
2019-03-22T17:29:27.993Z,1
2019-03-22T17:34:30.443Z,1
2019-03-22T17:39:32.949Z,1
2019-03-22T17:44:35.368Z,1
2019-03-22T17:49:47.495Z,1
2019-03-22T17:54:40.283Z,1
2019-03-22T17:59:42.753Z,1
2019-03-22T18:04:45.231Z,1
2019-03-22T18:09:47.728Z,1
2019-03-22T18:14:50.142Z,1
2019-03-22T18:19:53.476Z,1
2019-03-22T18:24:55.073Z,1
2019-03-22T18:29:57.479Z,1
2019-03-22T18:34:59.948Z,1
2019-03-22T18:40:02.526Z,1
2019-03-22T18:45:04.941Z,1
2019-03-22T18:50:07.332Z,1
2019-03-22T18:55:09.890Z,1
2019-03-22T19:00:12.322Z,1
2019-03-22T19:05:14.703Z,1
2019-03-22T19:10:17.216Z,1
2019-03-22T19:15:19.604Z,1
2019-03-22T19:20:22.214Z,1
2019-03-22T19:25:24.533Z,1
2019-03-22T19:30:26.993Z,1
2019-03-22T19:35:29.432Z,1
2019-03-22T19:40:31.947Z,1
2019-03-22T19:45:34.337Z,1
2019-03-22T19:50:36.809Z,1
2019-03-22T19:55:39.262Z,1
2019-03-22T20:00:41.718Z,1
2019-03-22T20:05:44.226Z,1
2019-03-22T20:10:46.654Z,2.4
2019-03-22T20:15:49.150Z,1.1
2019-03-22T20:20:51.570Z,2.1
2019-03-22T20:25:54.001Z,4.8
2019-03-22T20:30:56.464Z,23.5
2019-03-22T20:35:59.045Z,27.5
2019-03-22T20:41:01.432Z,29.8
2019-03-22T20:46:03.826Z,52.3
2019-03-22T20:51:06.312Z,84.8
2019-03-22T20:56:08.745Z,95.5
2019-03-22T21:01:11.247Z,99.3
2019-03-22T21:06:13.718Z,99.9
2019-03-22T21:11:16.219Z,99.9
2019-03-22T21:16:18.596Z,99.9
2019-03-22T21:21:21.320Z,99.9
2019-03-22T21:26:23.501Z,99.9
2019-03-22T21:31:25.963Z,99.9
2019-03-22T21:36:28.406Z,99.9
2019-03-22T21:41:30.906Z,99.9
2019-03-22T21:46:33.346Z,99.9
2019-03-22T21:51:35.791Z,99.9
2019-03-22T21:56:38.235Z,99.9
2019-03-22T22:01:40.704Z,99.9
2019-03-22T22:06:43.581Z,99.9
2019-03-22T22:11:45.664Z,99.9
2019-03-22T22:16:48.365Z,99.9
2019-03-22T22:21:50.985Z,99.9
2019-03-22T22:26:53.015Z,99.9
2019-03-22T22:31:55.462Z,99.9
2019-03-22T22:36:57.967Z,99.9
2019-03-22T22:42:00.388Z,99.9
2019-03-22T22:47:02.839Z,99.9
2019-03-22T22:52:05.570Z,99.9
2019-03-22T23:02:10.263Z,99.9
2019-03-22T23:07:12.720Z,99.9
2019-03-22T23:12:15.133Z,99.9
2019-03-22T23:17:17.596Z,99.9
2019-03-22T23:22:20.097Z,99.9
2019-03-22T23:27:22.495Z,99.9
2019-03-22T23:32:25.028Z,99.9
2019-03-22T23:37:27.404Z,99.9
2019-03-22T23:42:29.859Z,99.9
2019-03-22T23:47:32.442Z,99.9
2019-03-22T23:52:34.776Z,99.9
2019-03-22T23:57:37.314Z,99.9
